sensor_id;sensor_type;location;lat;lon;timestamp;P1;durP1;ratioP1;P2;durP2;ratioP2
18159;SDS011;9205;52.032;4.314;2022-11-20T00:00:51;9.53;;;4.27;;
18159;SDS011;9205;52.032;4.314;2022-11-20T00:03:19;6.83;;;4.27;;
18159;SDS011;9205;52.032;4.314;2022-11-20T00:05:46;9.90;;;4.47;;
18159;SDS011;9205;52.032;4.314;2022-11-20T00:08:13;8.07;;;4.33;;
18159;SDS011;9205;52.032;4.314;2022-11-20T00:10:41;7.90;;;4.17;;
18159;SDS011;9205;52.032;4.314;2022-11-20T00:13:08;12.63;;;4.97;;
18159;SDS011;9205;52.032;4.314;2022-11-20T00:15:36;11.20;;;4.37;;
18159;SDS011;9205;52.032;4.314;2022-11-20T00:18:03;6.33;;;3.97;;
18159;SDS011;9205;52.032;4.314;2022-11-20T00:20:31;7.73;;;4.23;;
18159;SDS011;9205;52.032;4.314;2022-11-20T00:22:58;7.50;;;4.47;;
18159;SDS011;9205;52.032;4.314;2022-11-20T00:25:25;9.90;;;4.80;;
18159;SDS011;9205;52.032;4.314;2022-11-20T00:27:52;10.00;;;4.70;;
18159;SDS011;9205;52.032;4.314;2022-11-20T00:30:19;8.03;;;5.07;;
18159;SDS011;9205;52.032;4.314;2022-11-20T00:32:48;9.70;;;4.10;;
18159;SDS011;9205;52.032;4.314;2022-11-20T00:35:15;10.53;;;4.57;;
18159;SDS011;9205;52.032;4.314;2022-11-20T00:37:42;12.60;;;5.30;;
18159;SDS011;9205;52.032;4.314;2022-11-20T00:40:10;14.20;;;5.60;;
18159;SDS011;9205;52.032;4.314;2022-11-20T00:42:39;11.03;;;5.30;;
18159;SDS011;9205;52.032;4.314;2022-11-20T00:45:06;12.87;;;5.87;;
18159;SDS011;9205;52.032;4.314;2022-11-20T00:47:34;13.33;;;6.20;;
18159;SDS011;9205;52.032;4.314;2022-11-20T00:50:03;11.80;;;5.63;;
18159;SDS011;9205;52.032;4.314;2022-11-20T00:52:31;12.37;;;5.20;;
18159;SDS011;9205;52.032;4.314;2022-11-20T00:54:58;10.57;;;5.43;;
18159;SDS011;9205;52.032;4.314;2022-11-20T00:57:25;11.63;;;5.33;;
18159;SDS011;9205;52.032;4.314;2022-11-20T00:59:52;10.43;;;5.43;;
18159;SDS011;9205;52.032;4.314;2022-11-20T01:02:20;13.13;;;5.50;;
18159;SDS011;9205;52.032;4.314;2022-11-20T01:04:48;8.10;;;4.37;;
18159;SDS011;9205;52.032;4.314;2022-11-20T01:07:16;8.57;;;4.40;;
18159;SDS011;9205;52.032;4.314;2022-11-20T01:09:43;9.63;;;4.57;;
18159;SDS011;9205;52.032;4.314;2022-11-20T01:12:10;11.83;;;4.73;;
18159;SDS011;9205;52.032;4.314;2022-11-20T01:14:37;10.50;;;4.53;;
18159;SDS011;9205;52.032;4.314;2022-11-20T01:17:05;10.07;;;4.33;;
18159;SDS011;9205;52.032;4.314;2022-11-20T01:19:37;6.73;;;4.27;;
18159;SDS011;9205;52.032;4.314;2022-11-20T01:22:04;7.57;;;4.23;;
18159;SDS011;9205;52.032;4.314;2022-11-20T01:24:33;6.77;;;4.13;;
18159;SDS011;9205;52.032;4.314;2022-11-20T01:27:00;7.60;;;3.73;;
18159;SDS011;9205;52.032;4.314;2022-11-20T01:29:27;11.27;;;5.00;;
18159;SDS011;9205;52.032;4.314;2022-11-20T01:31:55;7.27;;;4.33;;
18159;SDS011;9205;52.032;4.314;2022-11-20T01:34:22;8.87;;;4.73;;
18159;SDS011;9205;52.032;4.314;2022-11-20T01:36:50;10.27;;;4.60;;
18159;SDS011;9205;52.032;4.314;2022-11-20T01:39:18;9.07;;;5.10;;
18159;SDS011;9205;52.032;4.314;2022-11-20T01:41:50;9.20;;;4.40;;
18159;SDS011;9205;52.032;4.314;2022-11-20T01:44:50;9.43;;;4.60;;
18159;SDS011;9205;52.032;4.314;2022-11-20T01:47:27;6.67;;;4.37;;
18159;SDS011;9205;52.032;4.314;2022-11-20T01:50:05;10.10;;;4.20;;
18159;SDS011;9205;52.032;4.314;2022-11-20T01:52:42;12.87;;;4.83;;
18159;SDS011;9205;52.032;4.314;2022-11-20T01:55:17;10.67;;;4.30;;
18159;SDS011;9205;52.032;4.314;2022-11-20T01:57:51;8.90;;;4.57;;
18159;SDS011;9205;52.032;4.314;2022-11-20T02:00:20;7.33;;;3.87;;
18159;SDS011;9205;52.032;4.314;2022-11-20T02:02:49;7.73;;;4.80;;
18159;SDS011;9205;52.032;4.314;2022-11-20T02:05:22;10.50;;;4.57;;
18159;SDS011;9205;52.032;4.314;2022-11-20T02:07:55;10.33;;;4.80;;
18159;SDS011;9205;52.032;4.314;2022-11-20T02:10:25;6.27;;;3.83;;
18159;SDS011;9205;52.032;4.314;2022-11-20T02:12:56;10.73;;;4.67;;
18159;SDS011;9205;52.032;4.314;2022-11-20T02:15:41;8.47;;;4.50;;
18159;SDS011;9205;52.032;4.314;2022-11-20T02:18:10;8.80;;;4.40;;
18159;SDS011;9205;52.032;4.314;2022-11-20T02:20:40;9.80;;;5.27;;
18159;SDS011;9205;52.032;4.314;2022-11-20T02:23:12;11.10;;;4.80;;
18159;SDS011;9205;52.032;4.314;2022-11-20T02:25:48;8.27;;;4.10;;
18159;SDS011;9205;52.032;4.314;2022-11-20T02:28:17;9.37;;;4.60;;
18159;SDS011;9205;52.032;4.314;2022-11-20T02:30:45;8.47;;;4.33;;
18159;SDS011;9205;52.032;4.314;2022-11-20T02:33:12;8.33;;;4.20;;
18159;SDS011;9205;52.032;4.314;2022-11-20T02:35:41;10.00;;;4.17;;
18159;SDS011;9205;52.032;4.314;2022-11-20T02:38:10;9.47;;;4.30;;
18159;SDS011;9205;52.032;4.314;2022-11-20T02:40:39;8.37;;;4.13;;
18159;SDS011;9205;52.032;4.314;2022-11-20T02:43:08;9.37;;;4.70;;
18159;SDS011;9205;52.032;4.314;2022-11-20T02:45:36;8.30;;;4.17;;
18159;SDS011;9205;52.032;4.314;2022-11-20T02:48:05;10.37;;;4.77;;
18159;SDS011;9205;52.032;4.314;2022-11-20T02:50:36;10.30;;;4.40;;
18159;SDS011;9205;52.032;4.314;2022-11-20T02:53:05;10.13;;;3.87;;
18159;SDS011;9205;52.032;4.314;2022-11-20T02:55:33;12.87;;;5.73;;
18159;SDS011;9205;52.032;4.314;2022-11-20T02:58:01;10.93;;;4.97;;
18159;SDS011;9205;52.032;4.314;2022-11-20T03:00:30;10.07;;;5.70;;
18159;SDS011;9205;52.032;4.314;2022-11-20T03:02:57;8.47;;;4.50;;
18159;SDS011;9205;52.032;4.314;2022-11-20T03:05:24;8.73;;;4.17;;
18159;SDS011;9205;52.032;4.314;2022-11-20T03:07:51;12.80;;;5.20;;
18159;SDS011;9205;52.032;4.314;2022-11-20T03:10:18;7.90;;;5.10;;
18159;SDS011;9205;52.032;4.314;2022-11-20T03:12:45;7.73;;;4.20;;
18159;SDS011;9205;52.032;4.314;2022-11-20T03:15:13;10.77;;;4.80;;
18159;SDS011;9205;52.032;4.314;2022-11-20T03:17:41;11.17;;;4.60;;
18159;SDS011;9205;52.032;4.314;2022-11-20T03:20:09;9.13;;;4.27;;
18159;SDS011;9205;52.032;4.314;2022-11-20T03:22:37;9.33;;;4.57;;
18159;SDS011;9205;52.032;4.314;2022-11-20T03:25:04;8.33;;;4.17;;
18159;SDS011;9205;52.032;4.314;2022-11-20T03:27:33;11.17;;;5.00;;
18159;SDS011;9205;52.032;4.314;2022-11-20T03:30:01;9.30;;;4.20;;
18159;SDS011;9205;52.032;4.314;2022-11-20T03:32:28;12.40;;;4.83;;
18159;SDS011;9205;52.032;4.314;2022-11-20T03:34:57;8.83;;;4.63;;
18159;SDS011;9205;52.032;4.314;2022-11-20T03:37:24;10.03;;;5.00;;
18159;SDS011;9205;52.032;4.314;2022-11-20T03:39:51;8.83;;;4.43;;
18159;SDS011;9205;52.032;4.314;2022-11-20T03:42:18;7.60;;;4.73;;
18159;SDS011;9205;52.032;4.314;2022-11-20T03:45:03;9.43;;;4.43;;
18159;SDS011;9205;52.032;4.314;2022-11-20T03:47:32;10.23;;;4.63;;
18159;SDS011;9205;52.032;4.314;2022-11-20T03:50:00;9.20;;;4.70;;
18159;SDS011;9205;52.032;4.314;2022-11-20T03:52:27;6.87;;;4.20;;
18159;SDS011;9205;52.032;4.314;2022-11-20T03:54:54;10.37;;;4.37;;
18159;SDS011;9205;52.032;4.314;2022-11-20T03:57:22;7.50;;;4.10;;
18159;SDS011;9205;52.032;4.314;2022-11-20T03:59:49;11.63;;;4.60;;
18159;SDS011;9205;52.032;4.314;2022-11-20T04:02:16;9.70;;;4.30;;
18159;SDS011;9205;52.032;4.314;2022-11-20T04:04:43;9.73;;;4.57;;
18159;SDS011;9205;52.032;4.314;2022-11-20T04:07:11;9.17;;;4.73;;
18159;SDS011;9205;52.032;4.314;2022-11-20T04:09:39;9.00;;;4.87;;
18159;SDS011;9205;52.032;4.314;2022-11-20T04:12:06;11.50;;;5.10;;
18159;SDS011;9205;52.032;4.314;2022-11-20T04:14:33;7.37;;;4.13;;
18159;SDS011;9205;52.032;4.314;2022-11-20T04:17:00;10.27;;;5.33;;
18159;SDS011;9205;52.032;4.314;2022-11-20T04:19:28;7.03;;;5.00;;
18159;SDS011;9205;52.032;4.314;2022-11-20T04:21:55;7.23;;;4.60;;
18159;SDS011;9205;52.032;4.314;2022-11-20T04:24:23;8.20;;;4.60;;
18159;SDS011;9205;52.032;4.314;2022-11-20T04:26:50;11.03;;;4.83;;
18159;SDS011;9205;52.032;4.314;2022-11-20T04:29:17;7.70;;;4.60;;
18159;SDS011;9205;52.032;4.314;2022-11-20T04:31:45;8.77;;;4.07;;
18159;SDS011;9205;52.032;4.314;2022-11-20T04:34:12;9.87;;;5.13;;
18159;SDS011;9205;52.032;4.314;2022-11-20T04:36:39;9.57;;;4.80;;
18159;SDS011;9205;52.032;4.314;2022-11-20T04:39:11;10.27;;;4.83;;
18159;SDS011;9205;52.032;4.314;2022-11-20T04:41:41;10.23;;;4.80;;
18159;SDS011;9205;52.032;4.314;2022-11-20T04:44:09;10.43;;;4.77;;
18159;SDS011;9205;52.032;4.314;2022-11-20T04:46:40;10.03;;;4.60;;
18159;SDS011;9205;52.032;4.314;2022-11-20T04:49:08;8.07;;;4.10;;
18159;SDS011;9205;52.032;4.314;2022-11-20T04:51:37;8.27;;;4.30;;
18159;SDS011;9205;52.032;4.314;2022-11-20T04:54:04;8.53;;;4.87;;
18159;SDS011;9205;52.032;4.314;2022-11-20T04:56:31;9.57;;;4.40;;
18159;SDS011;9205;52.032;4.314;2022-11-20T04:59:03;7.83;;;4.30;;
18159;SDS011;9205;52.032;4.314;2022-11-20T05:01:30;8.53;;;4.40;;
18159;SDS011;9205;52.032;4.314;2022-11-20T05:03:58;7.93;;;4.10;;
18159;SDS011;9205;52.032;4.314;2022-11-20T05:06:25;8.30;;;4.57;;
18159;SDS011;9205;52.032;4.314;2022-11-20T05:08:52;7.10;;;3.97;;
18159;SDS011;9205;52.032;4.314;2022-11-20T05:11:20;10.83;;;5.10;;
18159;SDS011;9205;52.032;4.314;2022-11-20T05:13:48;9.33;;;4.37;;
18159;SDS011;9205;52.032;4.314;2022-11-20T05:16:17;8.60;;;4.90;;
18159;SDS011;9205;52.032;4.314;2022-11-20T05:18:46;9.23;;;4.40;;
18159;SDS011;9205;52.032;4.314;2022-11-20T05:21:14;7.10;;;4.43;;
18159;SDS011;9205;52.032;4.314;2022-11-20T05:23:43;8.50;;;4.37;;
18159;SDS011;9205;52.032;4.314;2022-11-20T05:26:13;9.90;;;4.63;;
18159;SDS011;9205;52.032;4.314;2022-11-20T05:28:43;10.67;;;4.87;;
18159;SDS011;9205;52.032;4.314;2022-11-20T05:31:11;11.67;;;5.40;;
18159;SDS011;9205;52.032;4.314;2022-11-20T05:33:42;10.10;;;5.57;;
18159;SDS011;9205;52.032;4.314;2022-11-20T05:36:11;9.77;;;4.43;;
18159;SDS011;9205;52.032;4.314;2022-11-20T05:38:41;8.47;;;4.43;;
18159;SDS011;9205;52.032;4.314;2022-11-20T05:41:09;7.47;;;4.30;;
18159;SDS011;9205;52.032;4.314;2022-11-20T05:43:39;9.30;;;4.70;;
18159;SDS011;9205;52.032;4.314;2022-11-20T05:46:09;9.20;;;4.93;;
18159;SDS011;9205;52.032;4.314;2022-11-20T05:48:38;12.20;;;4.83;;
18159;SDS011;9205;52.032;4.314;2022-11-20T05:51:09;10.57;;;4.73;;
18159;SDS011;9205;52.032;4.314;2022-11-20T05:53:39;10.00;;;4.47;;
18159;SDS011;9205;52.032;4.314;2022-11-20T05:56:07;8.83;;;4.73;;
18159;SDS011;9205;52.032;4.314;2022-11-20T05:58:39;11.43;;;4.73;;
18159;SDS011;9205;52.032;4.314;2022-11-20T06:01:07;9.90;;;4.97;;
18159;SDS011;9205;52.032;4.314;2022-11-20T06:03:38;9.13;;;4.60;;
18159;SDS011;9205;52.032;4.314;2022-11-20T06:06:11;9.80;;;5.30;;
18159;SDS011;9205;52.032;4.314;2022-11-20T06:08:39;11.67;;;5.00;;
18159;SDS011;9205;52.032;4.314;2022-11-20T06:11:07;9.63;;;4.60;;
18159;SDS011;9205;52.032;4.314;2022-11-20T06:13:36;11.90;;;4.93;;
18159;SDS011;9205;52.032;4.314;2022-11-20T06:16:04;7.93;;;4.93;;
18159;SDS011;9205;52.032;4.314;2022-11-20T06:18:32;8.47;;;4.53;;
18159;SDS011;9205;52.032;4.314;2022-11-20T06:21:01;10.10;;;4.90;;
18159;SDS011;9205;52.032;4.314;2022-11-20T06:23:30;8.03;;;4.60;;
18159;SDS011;9205;52.032;4.314;2022-11-20T06:26:00;9.40;;;4.97;;
18159;SDS011;9205;52.032;4.314;2022-11-20T06:28:29;10.37;;;4.80;;
18159;SDS011;9205;52.032;4.314;2022-11-20T06:30:56;7.43;;;4.50;;
18159;SDS011;9205;52.032;4.314;2022-11-20T06:33:24;10.60;;;5.57;;
18159;SDS011;9205;52.032;4.314;2022-11-20T06:35:52;11.00;;;5.17;;
18159;SDS011;9205;52.032;4.314;2022-11-20T06:38:24;10.67;;;4.57;;
18159;SDS011;9205;52.032;4.314;2022-11-20T06:40:51;8.57;;;4.23;;
18159;SDS011;9205;52.032;4.314;2022-11-20T06:43:18;12.70;;;5.33;;
18159;SDS011;9205;52.032;4.314;2022-11-20T06:45:51;13.97;;;4.90;;
18159;SDS011;9205;52.032;4.314;2022-11-20T06:48:19;9.47;;;4.83;;
18159;SDS011;9205;52.032;4.314;2022-11-20T06:50:46;10.03;;;5.23;;
18159;SDS011;9205;52.032;4.314;2022-11-20T06:53:13;9.30;;;5.07;;
18159;SDS011;9205;52.032;4.314;2022-11-20T06:55:43;11.33;;;5.50;;
18159;SDS011;9205;52.032;4.314;2022-11-20T06:58:10;9.87;;;5.20;;
18159;SDS011;9205;52.032;4.314;2022-11-20T07:00:38;12.47;;;5.90;;
18159;SDS011;9205;52.032;4.314;2022-11-20T07:03:05;9.97;;;5.00;;
18159;SDS011;9205;52.032;4.314;2022-11-20T07:05:34;8.63;;;4.40;;
18159;SDS011;9205;52.032;4.314;2022-11-20T07:08:02;7.97;;;4.77;;
18159;SDS011;9205;52.032;4.314;2022-11-20T07:10:29;12.17;;;5.03;;
18159;SDS011;9205;52.032;4.314;2022-11-20T07:12:58;14.10;;;5.50;;
18159;SDS011;9205;52.032;4.314;2022-11-20T07:15:26;10.73;;;5.73;;
18159;SDS011;9205;52.032;4.314;2022-11-20T07:17:53;11.87;;;5.60;;
18159;SDS011;9205;52.032;4.314;2022-11-20T07:20:20;11.17;;;4.63;;
18159;SDS011;9205;52.032;4.314;2022-11-20T07:22:52;9.73;;;5.33;;
18159;SDS011;9205;52.032;4.314;2022-11-20T07:25:21;9.50;;;4.47;;
18159;SDS011;9205;52.032;4.314;2022-11-20T07:27:48;9.13;;;4.90;;
18159;SDS011;9205;52.032;4.314;2022-11-20T07:30:17;8.83;;;5.07;;
18159;SDS011;9205;52.032;4.314;2022-11-20T07:32:46;10.60;;;5.13;;
18159;SDS011;9205;52.032;4.314;2022-11-20T07:35:13;8.47;;;4.30;;
18159;SDS011;9205;52.032;4.314;2022-11-20T07:37:41;10.40;;;5.03;;
18159;SDS011;9205;52.032;4.314;2022-11-20T07:40:08;11.13;;;5.43;;
18159;SDS011;9205;52.032;4.314;2022-11-20T07:42:37;11.00;;;5.40;;
18159;SDS011;9205;52.032;4.314;2022-11-20T07:45:05;8.80;;;4.77;;
18159;SDS011;9205;52.032;4.314;2022-11-20T07:47:36;10.17;;;6.03;;
18159;SDS011;9205;52.032;4.314;2022-11-20T07:50:04;10.20;;;5.70;;
18159;SDS011;9205;52.032;4.314;2022-11-20T07:52:32;11.33;;;5.10;;
18159;SDS011;9205;52.032;4.314;2022-11-20T07:55:00;10.93;;;5.70;;
18159;SDS011;9205;52.032;4.314;2022-11-20T07:57:28;11.57;;;6.20;;
18159;SDS011;9205;52.032;4.314;2022-11-20T07:59:55;8.87;;;5.37;;
18159;SDS011;9205;52.032;4.314;2022-11-20T08:02:22;13.17;;;6.73;;
18159;SDS011;9205;52.032;4.314;2022-11-20T08:04:52;11.73;;;5.70;;
18159;SDS011;9205;52.032;4.314;2022-11-20T08:07:19;12.93;;;5.70;;
18159;SDS011;9205;52.032;4.314;2022-11-20T08:09:46;12.40;;;5.83;;
18159;SDS011;9205;52.032;4.314;2022-11-20T08:12:16;10.33;;;5.33;;
18159;SDS011;9205;52.032;4.314;2022-11-20T08:15:04;11.10;;;6.20;;
18159;SDS011;9205;52.032;4.314;2022-11-20T08:17:33;12.37;;;5.87;;
18159;SDS011;9205;52.032;4.314;2022-11-20T08:20:01;9.63;;;5.60;;
18159;SDS011;9205;52.032;4.314;2022-11-20T08:22:29;13.40;;;5.30;;
18159;SDS011;9205;52.032;4.314;2022-11-20T08:24:57;12.17;;;5.87;;
18159;SDS011;9205;52.032;4.314;2022-11-20T08:27:24;10.67;;;5.63;;
18159;SDS011;9205;52.032;4.314;2022-11-20T08:29:51;12.70;;;5.53;;
18159;SDS011;9205;52.032;4.314;2022-11-20T08:32:18;10.83;;;5.63;;
18159;SDS011;9205;52.032;4.314;2022-11-20T08:34:45;12.57;;;5.97;;
18159;SDS011;9205;52.032;4.314;2022-11-20T08:37:14;12.87;;;5.77;;
18159;SDS011;9205;52.032;4.314;2022-11-20T08:39:41;12.07;;;6.17;;
18159;SDS011;9205;52.032;4.314;2022-11-20T08:42:08;12.60;;;6.00;;
18159;SDS011;9205;52.032;4.314;2022-11-20T08:44:36;14.60;;;6.40;;
18159;SDS011;9205;52.032;4.314;2022-11-20T08:47:03;13.70;;;6.73;;
18159;SDS011;9205;52.032;4.314;2022-11-20T08:49:30;11.57;;;6.27;;
18159;SDS011;9205;52.032;4.314;2022-11-20T08:51:57;11.73;;;6.10;;
18159;SDS011;9205;52.032;4.314;2022-11-20T08:54:26;13.47;;;6.73;;
18159;SDS011;9205;52.032;4.314;2022-11-20T08:56:53;15.67;;;6.60;;
18159;SDS011;9205;52.032;4.314;2022-11-20T08:59:20;14.10;;;6.90;;
18159;SDS011;9205;52.032;4.314;2022-11-20T09:01:48;13.47;;;6.00;;
18159;SDS011;9205;52.032;4.314;2022-11-20T09:04:15;10.53;;;5.67;;
18159;SDS011;9205;52.032;4.314;2022-11-20T09:06:43;14.43;;;6.17;;
18159;SDS011;9205;52.032;4.314;2022-11-20T09:09:10;13.97;;;6.57;;
18159;SDS011;9205;52.032;4.314;2022-11-20T09:11:38;12.40;;;6.47;;
18159;SDS011;9205;52.032;4.314;2022-11-20T09:14:06;12.37;;;6.23;;
18159;SDS011;9205;52.032;4.314;2022-11-20T09:16:33;15.33;;;6.20;;
18159;SDS011;9205;52.032;4.314;2022-11-20T09:19:00;14.53;;;7.67;;
18159;SDS011;9205;52.032;4.314;2022-11-20T09:21:27;15.60;;;7.13;;
18159;SDS011;9205;52.032;4.314;2022-11-20T09:23:55;15.13;;;6.40;;
18159;SDS011;9205;52.032;4.314;2022-11-20T09:26:22;15.47;;;6.77;;
18159;SDS011;9205;52.032;4.314;2022-11-20T09:28:50;15.57;;;6.90;;
18159;SDS011;9205;52.032;4.314;2022-11-20T09:31:19;12.00;;;6.33;;
18159;SDS011;9205;52.032;4.314;2022-11-20T09:33:50;14.73;;;7.33;;
18159;SDS011;9205;52.032;4.314;2022-11-20T09:36:18;13.57;;;7.23;;
18159;SDS011;9205;52.032;4.314;2022-11-20T09:38:45;13.60;;;7.17;;
18159;SDS011;9205;52.032;4.314;2022-11-20T09:41:19;17.20;;;8.10;;
18159;SDS011;9205;52.032;4.314;2022-11-20T09:44:09;14.23;;;7.10;;
18159;SDS011;9205;52.032;4.314;2022-11-20T09:47:00;17.23;;;7.23;;
18159;SDS011;9205;52.032;4.314;2022-11-20T09:49:37;15.77;;;7.60;;
18159;SDS011;9205;52.032;4.314;2022-11-20T09:52:27;15.73;;;7.10;;
18159;SDS011;9205;52.032;4.314;2022-11-20T09:55:08;14.47;;;7.60;;
18159;SDS011;9205;52.032;4.314;2022-11-20T09:57:40;14.87;;;6.50;;
18159;SDS011;9205;52.032;4.314;2022-11-20T10:00:14;18.30;;;7.23;;
18159;SDS011;9205;52.032;4.314;2022-11-20T10:02:43;18.63;;;7.77;;
18159;SDS011;9205;52.032;4.314;2022-11-20T10:05:19;12.40;;;6.40;;
18159;SDS011;9205;52.032;4.314;2022-11-20T10:07:54;15.37;;;6.60;;
18159;SDS011;9205;52.032;4.314;2022-11-20T10:10:40;15.93;;;7.50;;
18159;SDS011;9205;52.032;4.314;2022-11-20T10:13:15;13.93;;;6.43;;
18159;SDS011;9205;52.032;4.314;2022-11-20T10:16:01;15.17;;;6.77;;
18159;SDS011;9205;52.032;4.314;2022-11-20T10:18:53;18.43;;;8.20;;
18159;SDS011;9205;52.032;4.314;2022-11-20T10:21:37;15.60;;;7.27;;
18159;SDS011;9205;52.032;4.314;2022-11-20T10:24:26;20.87;;;7.77;;
18159;SDS011;9205;52.032;4.314;2022-11-20T10:27:29;14.63;;;7.47;;
18159;SDS011;9205;52.032;4.314;2022-11-20T10:30:13;14.27;;;6.67;;
18159;SDS011;9205;52.032;4.314;2022-11-20T10:32:45;17.20;;;7.77;;
18159;SDS011;9205;52.032;4.314;2022-11-20T10:35:19;15.27;;;8.07;;
18159;SDS011;9205;52.032;4.314;2022-11-20T10:37:53;17.47;;;7.30;;
18159;SDS011;9205;52.032;4.314;2022-11-20T10:40:27;16.73;;;7.27;;
18159;SDS011;9205;52.032;4.314;2022-11-20T10:43:08;18.33;;;7.87;;
18159;SDS011;9205;52.032;4.314;2022-11-20T10:45:45;15.17;;;7.30;;
18159;SDS011;9205;52.032;4.314;2022-11-20T10:48:22;12.30;;;7.07;;
18159;SDS011;9205;52.032;4.314;2022-11-20T10:50:57;16.43;;;8.10;;
18159;SDS011;9205;52.032;4.314;2022-11-20T10:53:44;16.23;;;6.87;;
18159;SDS011;9205;52.032;4.314;2022-11-20T10:56:31;17.87;;;8.03;;
18159;SDS011;9205;52.032;4.314;2022-11-20T10:59:24;16.97;;;7.70;;
18159;SDS011;9205;52.032;4.314;2022-11-20T11:02:14;16.30;;;6.57;;
18159;SDS011;9205;52.032;4.314;2022-11-20T11:04:46;12.10;;;6.47;;
18159;SDS011;9205;52.032;4.314;2022-11-20T11:07:16;18.23;;;7.73;;
18159;SDS011;9205;52.032;4.314;2022-11-20T11:09:52;14.37;;;7.30;;
18159;SDS011;9205;52.032;4.314;2022-11-20T11:12:21;15.53;;;7.40;;
18159;SDS011;9205;52.032;4.314;2022-11-20T11:14:52;16.00;;;8.00;;
18159;SDS011;9205;52.032;4.314;2022-11-20T11:17:22;19.40;;;8.40;;
18159;SDS011;9205;52.032;4.314;2022-11-20T11:20:02;18.10;;;7.83;;
18159;SDS011;9205;52.032;4.314;2022-11-20T11:22:42;19.47;;;8.33;;
18159;SDS011;9205;52.032;4.314;2022-11-20T11:25:18;16.93;;;7.90;;
18159;SDS011;9205;52.032;4.314;2022-11-20T11:27:56;17.30;;;7.50;;
18159;SDS011;9205;52.032;4.314;2022-11-20T11:30:26;17.87;;;8.00;;
18159;SDS011;9205;52.032;4.314;2022-11-20T11:33:04;16.20;;;7.80;;
18159;SDS011;9205;52.032;4.314;2022-11-20T11:35:43;18.20;;;7.87;;
18159;SDS011;9205;52.032;4.314;2022-11-20T11:38:14;23.20;;;8.27;;
18159;SDS011;9205;52.032;4.314;2022-11-20T11:40:45;15.80;;;7.40;;
18159;SDS011;9205;52.032;4.314;2022-11-20T11:43:17;17.53;;;8.53;;
18159;SDS011;9205;52.032;4.314;2022-11-20T11:46:09;14.03;;;6.90;;
18159;SDS011;9205;52.032;4.314;2022-11-20T11:48:56;16.60;;;8.03;;
18159;SDS011;9205;52.032;4.314;2022-11-20T11:51:28;21.30;;;8.40;;
18159;SDS011;9205;52.032;4.314;2022-11-20T11:54:05;15.03;;;7.60;;
18159;SDS011;9205;52.032;4.314;2022-11-20T11:56:42;16.47;;;6.87;;
18159;SDS011;9205;52.032;4.314;2022-11-20T11:59:12;18.37;;;8.47;;
18159;SDS011;9205;52.032;4.314;2022-11-20T12:01:50;15.40;;;7.83;;
18159;SDS011;9205;52.032;4.314;2022-11-20T12:04:25;20.60;;;8.80;;
18159;SDS011;9205;52.032;4.314;2022-11-20T12:07:13;19.13;;;8.80;;
18159;SDS011;9205;52.032;4.314;2022-11-20T12:10:02;20.37;;;8.53;;
18159;SDS011;9205;52.032;4.314;2022-11-20T12:12:31;17.20;;;7.63;;
18159;SDS011;9205;52.032;4.314;2022-11-20T12:15:07;17.73;;;8.13;;
18159;SDS011;9205;52.032;4.314;2022-11-20T12:17:41;20.30;;;8.67;;
18159;SDS011;9205;52.032;4.314;2022-11-20T12:20:11;23.20;;;9.27;;
18159;SDS011;9205;52.032;4.314;2022-11-20T12:22:51;22.07;;;8.43;;
18159;SDS011;9205;52.032;4.314;2022-11-20T12:25:27;21.40;;;9.50;;
18159;SDS011;9205;52.032;4.314;2022-11-20T12:28:11;20.70;;;8.83;;
18159;SDS011;9205;52.032;4.314;2022-11-20T12:31:11;27.93;;;9.93;;
18159;SDS011;9205;52.032;4.314;2022-11-20T12:34:04;23.23;;;8.67;;
18159;SDS011;9205;52.032;4.314;2022-11-20T12:36:54;23.77;;;9.10;;
18159;SDS011;9205;52.032;4.314;2022-11-20T12:39:35;24.17;;;8.70;;
18159;SDS011;9205;52.032;4.314;2022-11-20T12:42:14;21.00;;;8.67;;
18159;SDS011;9205;52.032;4.314;2022-11-20T12:45:20;25.30;;;9.03;;
18159;SDS011;9205;52.032;4.314;2022-11-20T12:51:19;21.17;;;9.07;;
18159;SDS011;9205;52.032;4.314;2022-11-20T12:54:09;23.47;;;10.17;;
18159;SDS011;9205;52.032;4.314;2022-11-20T12:56:58;22.63;;;9.07;;
18159;SDS011;9205;52.032;4.314;2022-11-20T12:59:42;22.27;;;10.23;;
18159;SDS011;9205;52.032;4.314;2022-11-20T13:02:34;24.20;;;9.47;;
18159;SDS011;9205;52.032;4.314;2022-11-20T13:05:21;19.80;;;8.57;;
18159;SDS011;9205;52.032;4.314;2022-11-20T13:07:58;25.90;;;9.10;;
18159;SDS011;9205;52.032;4.314;2022-11-20T13:10:31;23.27;;;9.13;;
18159;SDS011;9205;52.032;4.314;2022-11-20T13:13:08;24.67;;;10.03;;
18159;SDS011;9205;52.032;4.314;2022-11-20T13:15:47;22.77;;;9.43;;
18159;SDS011;9205;52.032;4.314;2022-11-20T13:18:20;21.90;;;9.13;;
18159;SDS011;9205;52.032;4.314;2022-11-20T13:20:48;23.00;;;9.17;;
18159;SDS011;9205;52.032;4.314;2022-11-20T13:23:23;23.27;;;9.23;;
18159;SDS011;9205;52.032;4.314;2022-11-20T13:26:02;24.53;;;10.10;;
18159;SDS011;9205;52.032;4.314;2022-11-20T13:28:33;24.10;;;9.17;;
18159;SDS011;9205;52.032;4.314;2022-11-20T13:31:02;18.63;;;8.93;;
18159;SDS011;9205;52.032;4.314;2022-11-20T13:33:30;22.67;;;10.10;;
18159;SDS011;9205;52.032;4.314;2022-11-20T13:36:00;20.90;;;9.47;;
18159;SDS011;9205;52.032;4.314;2022-11-20T13:38:40;22.37;;;9.13;;
18159;SDS011;9205;52.032;4.314;2022-11-20T13:41:11;21.27;;;9.13;;
18159;SDS011;9205;52.032;4.314;2022-11-20T13:43:58;20.07;;;9.23;;
18159;SDS011;9205;52.032;4.314;2022-11-20T13:46:40;21.97;;;9.77;;
18159;SDS011;9205;52.032;4.314;2022-11-20T13:49:18;19.53;;;8.47;;
18159;SDS011;9205;52.032;4.314;2022-11-20T13:51:55;22.50;;;9.10;;
18159;SDS011;9205;52.032;4.314;2022-11-20T13:57:54;20.13;;;8.57;;
18159;SDS011;9205;52.032;4.314;2022-11-20T14:00:57;19.20;;;8.00;;
18159;SDS011;9205;52.032;4.314;2022-11-20T14:03:36;23.30;;;9.50;;
18159;SDS011;9205;52.032;4.314;2022-11-20T14:06:10;22.60;;;9.73;;
18159;SDS011;9205;52.032;4.314;2022-11-20T14:08:42;22.30;;;8.80;;
18159;SDS011;9205;52.032;4.314;2022-11-20T14:11:15;23.70;;;10.03;;
18159;SDS011;9205;52.032;4.314;2022-11-20T14:13:52;20.97;;;9.30;;
18159;SDS011;9205;52.032;4.314;2022-11-20T14:16:24;23.73;;;10.70;;
18159;SDS011;9205;52.032;4.314;2022-11-20T14:18:55;16.97;;;8.53;;
18159;SDS011;9205;52.032;4.314;2022-11-20T14:21:25;23.37;;;8.90;;
18159;SDS011;9205;52.032;4.314;2022-11-20T14:24:03;24.50;;;9.47;;
18159;SDS011;9205;52.032;4.314;2022-11-20T14:26:31;24.13;;;8.47;;
18159;SDS011;9205;52.032;4.314;2022-11-20T14:28:59;22.60;;;9.27;;
18159;SDS011;9205;52.032;4.314;2022-11-20T14:31:28;18.37;;;8.97;;
18159;SDS011;9205;52.032;4.314;2022-11-20T14:33:55;19.67;;;8.33;;
18159;SDS011;9205;52.032;4.314;2022-11-20T14:36:24;20.60;;;8.73;;
18159;SDS011;9205;52.032;4.314;2022-11-20T14:38:52;21.20;;;9.07;;
18159;SDS011;9205;52.032;4.314;2022-11-20T14:41:21;20.53;;;9.17;;
18159;SDS011;9205;52.032;4.314;2022-11-20T14:43:51;19.03;;;7.83;;
18159;SDS011;9205;52.032;4.314;2022-11-20T14:46:23;18.17;;;8.33;;
18159;SDS011;9205;52.032;4.314;2022-11-20T14:48:53;20.60;;;8.13;;
18159;SDS011;9205;52.032;4.314;2022-11-20T14:51:30;17.77;;;7.87;;
18159;SDS011;9205;52.032;4.314;2022-11-20T14:54:12;18.93;;;8.50;;
18159;SDS011;9205;52.032;4.314;2022-11-20T14:56:42;15.47;;;7.80;;
18159;SDS011;9205;52.032;4.314;2022-11-20T14:59:22;18.17;;;7.67;;
18159;SDS011;9205;52.032;4.314;2022-11-20T15:01:54;18.67;;;8.13;;
18159;SDS011;9205;52.032;4.314;2022-11-20T15:04:25;20.70;;;8.50;;
18159;SDS011;9205;52.032;4.314;2022-11-20T15:06:53;17.43;;;7.63;;
18159;SDS011;9205;52.032;4.314;2022-11-20T15:09:23;17.93;;;7.83;;
18159;SDS011;9205;52.032;4.314;2022-11-20T15:11:52;17.93;;;8.10;;
18159;SDS011;9205;52.032;4.314;2022-11-20T15:14:23;17.83;;;7.13;;
18159;SDS011;9205;52.032;4.314;2022-11-20T15:16:54;18.27;;;8.07;;
18159;SDS011;9205;52.032;4.314;2022-11-20T15:19:23;17.60;;;8.10;;
18159;SDS011;9205;52.032;4.314;2022-11-20T15:21:52;21.57;;;8.53;;
18159;SDS011;9205;52.032;4.314;2022-11-20T15:24:20;17.30;;;7.27;;